Terminal Aerodrome Forecast
Issued by NWS

Home | Current Version | Previous Version | Text Only | Print | Product List | Glossary On
Versions: 1 2 3 4 5 6 7 8 9 10 11 12 13 14 15 16 17 18
353
FTUS45 KPSR 242014 AAA
TAFIPL
TAF AMD
KIPL 242014Z 2420/2518 15012KT P6SM SCT010 BKN180
      TEMPO 2420/2424 VRB05KT
     FM250400 15011KT P6SM FEW120 BKN250=

USA.gov is the U.S. government's official web portal to all federal, state and local government web resources and services.